Time;durP1;ratioP1;P1;durP2;ratioP2;P2;SDS_P1;SDS_P2;PMS_P1;PMS_P2;Temp;Humidity;BMP_temperature;BMP_pressure;BME280_temperature;BME280_humidity;BME280_pressure;Samples;Min_cycle;Max_cycle;Signal;HPM_P1;HPM_P2
2022/09/25 00:02:07;;;;;;;;;;;;;;;;;;5012490;28;20332;-90
2022/09/25 00:04:33;;;;;;;;;;;;;;;;;;4999818;28;19975;-90
2022/09/25 00:06:59;;;;;;;;;;;;;;;;;;5012893;28;19924;-91
2022/09/25 00:09:25;;;;;;;;;;;;;;;;;;5020612;28;21583;-91
2022/09/25 00:11:51;;;;;;;;;;;;;;;;;;5014104;28;20011;-90
2022/09/25 00:14:17;;;;;;;;;;;;;;;;;;5005729;28;19931;-91
2022/09/25 00:16:43;;;;;;;;;;;;;;;;;;4997772;28;20899;-90
2022/09/25 00:21:54;;;;;;;;;;;;;;;;;;5011101;28;19970;-91
2022/09/25 00:24:21;;;;;;;;;;;;;;;;;;5015438;28;19936;-91
2022/09/25 00:26:47;;;;;;;;;;;;;;;;;;4995464;28;21690;-90
2022/09/25 00:29:13;;;;;;;;;;;;;;;;;;5023452;28;19975;-91
2022/09/25 00:31:38;;;;;;;;;;;;;;;;;;5012306;28;20831;-91
2022/09/25 00:34:04;;;;;;;;;;;;;;;;;;5003176;28;20024;-90
2022/09/25 00:36:30;;;;;;;;;;;;;;;;;;5017943;28;19975;-90
2022/09/25 00:38:57;;;;;;;;;;;;;;;;;;4996791;28;19929;-91
2022/09/25 00:41:24;;;;;;;;;;;;;;;;;;5002530;28;19929;-91
2022/09/25 00:43:50;;;;;;;;;;;;;;;;;;5013314;28;20058;-91
2022/09/25 00:46:16;;;;;;;;;;;;;;;;;;5000959;28;20392;-92
2022/09/25 00:48:42;;;;;;;;;;;;;;;;;;5011295;28;19975;-90
2022/09/25 00:51:08;;;;;;;;;;;;;;;;;;5004454;28;20299;-91
2022/09/25 00:53:34;;;;;;;;;;;;;;;;;;5004864;28;19932;-91
2022/09/25 00:56:00;;;;;;;;;;;;;;;;;;4995585;28;20021;-90
2022/09/25 00:58:26;;;;;;;;;;;;;;;;;;5013102;28;19971;-90
2022/09/25 01:00:52;;;;;;;;;;;;;;;;;;5012637;28;20027;-90
2022/09/25 01:03:18;;;;;;;;;;;;;;;;;;4996745;28;19932;-90
2022/09/25 01:05:44;;;;;;;;;;;;;;;;;;5012931;28;23218;-90
2022/09/25 01:08:11;;;;;;;;;;;;;;;;;;5013590;28;19935;-90
2022/09/25 01:10:40;;;;;;;;;;;;;;;;;;5003857;28;19978;-90
2022/09/25 01:13:06;;;;;;;;;;;;;;;;;;5000100;28;19948;-90
2022/09/25 01:15:32;;;;;;;;;;;;;;;;;;4996393;28;20318;-91
2022/09/25 01:17:58;;;;;;;;;;;;;;;;;;4996398;28;19935;-90
2022/09/25 01:20:24;;;;;;;;;;;;;;;;;;5004080;28;20346;-90
2022/09/25 01:22:50;;;;;;;;;;;;;;;;;;4997066;28;19971;-90
2022/09/25 01:25:16;;;;;;;;;;;;;;;;;;5014220;28;20701;-89
2022/09/25 01:27:42;;;;;;;;;;;;;;;;;;4995836;28;19925;-91
2022/09/25 01:30:08;;;;;;;;;;;;;;;;;;5015963;28;19995;-90
2022/09/25 01:32:34;;;;;;;;;;;;;;;;;;5000647;28;19936;-90
2022/09/25 01:35:00;;;;;;;;;;;;;;;;;;5016809;28;19925;-90
2022/09/25 01:37:26;;;;;;;;;;;;;;;;;;5017913;28;20063;-91
2022/09/25 01:39:52;;;;;;;;;;;;;;;;;;5012732;28;20619;-91
2022/09/25 01:42:18;;;;;;;;;;;;;;;;;;5005687;28;19941;-91
2022/09/25 01:44:44;;;;;;;;;;;;;;;;;;5030199;28;20087;-90
2022/09/25 01:47:10;;;;;;;;;;;;;;;;;;5001900;28;20004;-91
2022/09/25 01:49:36;;;;;;;;;;;;;;;;;;5017173;28;20797;-91
2022/09/25 01:52:02;;;;;;;;;;;;;;;;;;4998799;28;20405;-91
2022/09/25 01:54:28;;;;;;;;;;;;;;;;;;5008184;28;20027;-91
2022/09/25 01:56:54;;;;;;;;;;;;;;;;;;5000243;28;19925;-91
2022/09/25 01:59:21;;;;;;;;;;;;;;;;;;5018493;28;19974;-91
2022/09/25 02:01:47;;;;;;;;;;;;;;;;;;5009578;28;19929;-90
2022/09/25 02:04:13;;;;;;;;;;;;;;;;;;5021336;28;20664;-90
2022/09/25 02:06:39;;;;;;;;;;;;;;;;;;5014698;28;19929;-91
2022/09/25 02:09:06;;;;;;;;;;;;;;;;;;5006738;28;20371;-91
2022/09/25 02:11:32;;;;;;;;;;;;;;;;;;5004187;28;19976;-90
2022/09/25 02:13:58;;;;;;;;;;;;;;;;;;5018155;28;20956;-91
2022/09/25 02:16:24;;;;;;;;;;;;;;;;;;5024372;28;19931;-90
2022/09/25 02:21:35;;;;;;;;;;;;;;;;;;5026900;28;19925;-90
2022/09/25 02:24:00;;;;;;;;;;;;;;;;;;4997080;28;20353;-90
2022/09/25 02:26:26;;;;;;;;;;;;;;;;;;4998564;28;19928;-91
2022/09/25 02:28:53;;;;;;;;;;;;;;;;;;5014425;28;19925;-89
2022/09/25 02:31:19;;;;;;;;;;;;;;;;;;5006516;28;20560;-91
2022/09/25 02:33:45;;;;;;;;;;;;;;;;;;5016945;28;20257;-90
2022/09/25 02:36:11;;;;;;;;;;;;;;;;;;5007768;28;19970;-90
2022/09/25 02:38:40;;;;;;;;;;;;;;;;;;5020937;28;20063;-90
2022/09/25 02:41:06;;;;;;;;;;;;;;;;;;5002577;28;20352;-90
2022/09/25 02:43:33;;;;;;;;;;;;;;;;;;5020995;28;19925;-90
2022/09/25 02:46:01;;;;;;;;;;;;;;;;;;4995663;28;19928;-90
2022/09/25 02:48:27;;;;;;;;;;;;;;;;;;5006397;28;20387;-91
2022/09/25 02:50:53;;;;;;;;;;;;;;;;;;5002907;28;19960;-91
2022/09/25 02:53:19;;;;;;;;;;;;;;;;;;5024689;28;20336;-91
2022/09/25 02:55:45;;;;;;;;;;;;;;;;;;5020541;28;19951;-91
2022/09/25 02:58:11;;;;;;;;;;;;;;;;;;5023811;28;19921;-91
2022/09/25 03:00:40;;;;;;;;;;;;;;;;;;5004663;28;19969;-90
2022/09/25 03:03:06;;;;;;;;;;;;;;;;;;5021839;28;20015;-90
2022/09/25 03:05:32;;;;;;;;;;;;;;;;;;5004837;28;19970;-91
2022/09/25 03:10:45;;;;;;;;;;;;;;;;;;5021190;28;19983;-90
2022/09/25 03:13:11;;;;;;;;;;;;;;;;;;5008762;28;19936;-90
2022/09/25 03:15:40;;;;;;;;;;;;;;;;;;5022713;28;19921;-89
2022/09/25 03:18:06;;;;;;;;;;;;;;;;;;5025897;28;19948;-90
2022/09/25 03:20:32;;;;;;;;;;;;;;;;;;5004285;28;19940;-91
2022/09/25 03:22:58;;;;;;;;;;;;;;;;;;5021643;28;20507;-90
2022/09/25 03:25:24;;;;;;;;;;;;;;;;;;5009959;28;19932;-91
2022/09/25 03:27:50;;;;;;;;;;;;;;;;;;5003628;28;19924;-91
2022/09/25 03:30:16;;;;;;;;;;;;;;;;;;5006515;28;19921;-90
2022/09/25 03:32:42;;;;;;;;;;;;;;;;;;5001035;28;19928;-91
2022/09/25 03:35:08;;;;;;;;;;;;;;;;;;5001507;28;20007;-90
2022/09/25 03:37:34;;;;;;;;;;;;;;;;;;5020534;28;19925;-91
2022/09/25 03:40:00;;;;;;;;;;;;;;;;;;4997911;28;19931;-90
2022/09/25 03:42:27;;;;;;;;;;;;;;;;;;5007029;28;20003;-91
2022/09/25 03:44:53;;;;;;;;;;;;;;;;;;5003832;28;19968;-90
2022/09/25 03:47:19;;;;;;;;;;;;;;;;;;5007145;28;20012;-91
2022/09/25 03:49:44;;;;;;;;;;;;;;;;;;5000823;28;19924;-90
2022/09/25 03:52:13;;;;;;;;;;;;;;;;;;5015976;28;19925;-91
2022/09/25 03:54:38;;;;;;;;;;;;;;;;;;5005781;28;20386;-92
2022/09/25 03:57:04;;;;;;;;;;;;;;;;;;5013748;28;19936;-92
2022/09/25 03:59:30;;;;;;;;;;;;;;;;;;5014772;28;20368;-92
2022/09/25 04:01:57;;;;;;;;;;;;;;;;;;5003142;28;19925;-92
2022/09/25 04:04:23;;;;;;;;;;;;;;;;;;5011705;28;20417;-90
2022/09/25 04:06:49;;;;;;;;;;;;;;;;;;5007829;28;19925;-90
2022/09/25 04:09:15;;;;;;;;;;;;;;;;;;5009339;28;19929;-90
2022/09/25 04:11:42;;;;;;;;;;;;;;;;;;5004508;28;20394;-91
2022/09/25 04:14:08;;;;;;;;;;;;;;;;;;5007260;28;19929;-90
2022/09/25 04:16:34;;;;;;;;;;;;;;;;;;5022708;28;19932;-90
2022/09/25 04:19:00;;;;;;;;;;;;;;;;;;5005523;28;19929;-91
2022/09/25 04:21:26;;;;;;;;;;;;;;;;;;5011236;28;19935;-91
2022/09/25 04:26:39;;;;;;;;;;;;;;;;;;5023249;28;20376;-91
2022/09/25 04:29:06;;;;;;;;;;;;;;;;;;5004995;28;19951;-91
2022/09/25 04:31:32;;;;;;;;;;;;;;;;;;5004366;28;19929;-90
2022/09/25 04:33:57;;;;;;;;;;;;;;;;;;4997816;28;21471;-90
2022/09/25 04:36:23;;;;;;;;;;;;;;;;;;5021052;28;19925;-90
2022/09/25 04:38:49;;;;;;;;;;;;;;;;;;5016092;28;19934;-90
2022/09/25 04:41:16;;;;;;;;;;;;;;;;;;5020975;28;20920;-90
2022/09/25 04:43:42;;;;;;;;;;;;;;;;;;5015946;28;19921;-91
2022/09/25 04:46:08;;;;;;;;;;;;;;;;;;5006796;28;19932;-91
2022/09/25 04:48:34;;;;;;;;;;;;;;;;;;5007162;28;20447;-91
2022/09/25 04:51:00;;;;;;;;;;;;;;;;;;5000998;28;19937;-90
2022/09/25 04:53:26;;;;;;;;;;;;;;;;;;5021386;28;19945;-90
2022/09/25 04:55:53;;;;;;;;;;;;;;;;;;5018796;28;20782;-90
2022/09/25 04:58:19;;;;;;;;;;;;;;;;;;5019975;28;19932;-91
2022/09/25 05:00:45;;;;;;;;;;;;;;;;;;4996226;28;20896;-90
2022/09/25 05:03:11;;;;;;;;;;;;;;;;;;5019353;28;19921;-90
2022/09/25 05:05:37;;;;;;;;;;;;;;;;;;5021785;28;20322;-90
2022/09/25 05:08:06;;;;;;;;;;;;;;;;;;5012997;28;19925;-90
2022/09/25 05:10:33;;;;;;;;;;;;;;;;;;5021536;28;19929;-90
2022/09/25 05:12:59;;;;;;;;;;;;;;;;;;5011324;28;20015;-90
2022/09/25 05:15:25;;;;;;;;;;;;;;;;;;5021255;28;20350;-90
2022/09/25 05:17:52;;;;;;;;;;;;;;;;;;5017678;28;19925;-90
2022/09/25 05:20:18;;;;;;;;;;;;;;;;;;5023737;28;19928;-90
2022/09/25 05:22:44;;;;;;;;;;;;;;;;;;5021742;28;19975;-90
2022/09/25 05:25:10;;;;;;;;;;;;;;;;;;5006855;28;20342;-91
2022/09/25 05:27:36;;;;;;;;;;;;;;;;;;5020639;28;19928;-91
2022/09/25 05:30:02;;;;;;;;;;;;;;;;;;4998497;28;19950;-90
2022/09/25 05:32:29;;;;;;;;;;;;;;;;;;5007213;28;20379;-91
2022/09/25 05:34:55;;;;;;;;;;;;;;;;;;5000452;28;19931;-91
2022/09/25 05:37:21;;;;;;;;;;;;;;;;;;5008865;28;19929;-90
2022/09/25 05:39:47;;;;;;;;;;;;;;;;;;5004805;28;19961;-91
2022/09/25 05:42:16;;;;;;;;;;;;;;;;;;5005184;28;19931;-90
2022/09/25 05:44:41;;;;;;;;;;;;;;;;;;4999602;28;20450;-91
2022/09/25 05:47:07;;;;;;;;;;;;;;;;;;5009167;28;19931;-91
2022/09/25 05:49:33;;;;;;;;;;;;;;;;;;5013592;28;20302;-90
2022/09/25 05:51:59;;;;;;;;;;;;;;;;;;5016916;28;20007;-90
2022/09/25 05:54:25;;;;;;;;;;;;;;;;;;5006494;28;19936;-90
2022/09/25 05:56:51;;;;;;;;;;;;;;;;;;5003153;28;20479;-91
2022/09/25 05:59:17;;;;;;;;;;;;;;;;;;5003289;28;19936;-90
2022/09/25 06:01:43;;;;;;;;;;;;;;;;;;5013494;28;19925;-89
2022/09/25 06:04:09;;;;;;;;;;;;;;;;;;5006947;28;20445;-90
2022/09/25 06:06:35;;;;;;;;;;;;;;;;;;5004592;28;20019;-90
2022/09/25 06:09:02;;;;;;;;;;;;;;;;;;5000628;28;20299;-90
2022/09/25 06:11:30;;;;;;;;;;;;;;;;;;5022719;28;19929;-90
2022/09/25 06:13:56;;;;;;;;;;;;;;;;;;4995779;28;19929;-90
2022/09/25 06:16:22;;;;;;;;;;;;;;;;;;5020794;28;20421;-90
2022/09/25 06:18:49;;;;;;;;;;;;;;;;;;4999412;28;19929;-90
2022/09/25 06:21:15;;;;;;;;;;;;;;;;;;5002245;28;19935;-90
2022/09/25 06:23:43;;;;;;;;;;;;;;;;;;5002553;28;19962;-90
2022/09/25 06:26:09;;;;;;;;;;;;;;;;;;5012899;28;19924;-91
2022/09/25 06:28:35;;;;;;;;;;;;;;;;;;5009071;28;19943;-91
2022/09/25 06:31:01;;;;;;;;;;;;;;;;;;5001848;28;19941;-90
2022/09/25 06:33:27;;;;;;;;;;;;;;;;;;5010427;28;19925;-90
2022/09/25 06:35:53;;;;;;;;;;;;;;;;;;5001297;28;20398;-91
2022/09/25 06:38:19;;;;;;;;;;;;;;;;;;5027265;28;20014;-91
2022/09/25 06:40:45;;;;;;;;;;;;;;;;;;5007327;28;19925;-90
2022/09/25 06:43:11;;;;;;;;;;;;;;;;;;5027166;28;19935;-90
2022/09/25 06:45:41;;;;;;;;;;;;;;;;;;5014114;28;19966;-91
2022/09/25 06:48:07;;;;;;;;;;;;;;;;;;5037946;28;20228;-91
2022/09/25 06:50:33;;;;;;;;;;;;;;;;;;5016101;28;19960;-89
2022/09/25 06:52:59;;;;;;;;;;;;;;;;;;5011336;28;20354;-90
2022/09/25 06:55:25;;;;;;;;;;;;;;;;;;5021614;28;19982;-90
2022/09/25 06:57:51;;;;;;;;;;;;;;;;;;5015183;28;20312;-90
2022/09/25 07:00:17;;;;;;;;;;;;;;;;;;5018249;28;19932;-89
2022/09/25 07:05:28;;;;;;;;;;;;;;;;;;5035288;28;20391;-90
2022/09/25 07:07:54;;;;;;;;;;;;;;;;;;5026472;28;19920;-90
2022/09/25 07:10:20;;;;;;;;;;;;;;;;;;5035770;28;19978;-91
2022/09/25 07:12:47;;;;;;;;;;;;;;;;;;5024079;28;20501;-90
2022/09/25 07:15:13;;;;;;;;;;;;;;;;;;5010765;28;20015;-90
2022/09/25 07:17:39;;;;;;;;;;;;;;;;;;5024574;28;19931;-91
2022/09/25 07:20:05;;;;;;;;;;;;;;;;;;5020569;28;20438;-90
2022/09/25 07:22:31;;;;;;;;;;;;;;;;;;5022687;28;20751;-90
2022/09/25 07:24:57;;;;;;;;;;;;;;;;;;5006206;28;21601;-90
2022/09/25 07:27:23;;;;;;;;;;;;;;;;;;5028586;28;19924;-90
2022/09/25 07:29:49;;;;;;;;;;;;;;;;;;5016325;28;21571;-91
2022/09/25 07:32:15;;;;;;;;;;;;;;;;;;5030476;28;20399;-91
2022/09/25 07:34:41;;;;;;;;;;;;;;;;;;5008029;28;21224;-90
2022/09/25 07:37:07;;;;;;;;;;;;;;;;;;5023229;28;19924;-91
2022/09/25 07:39:33;;;;;;;;;;;;;;;;;;5029095;28;20399;-90
2022/09/25 07:41:59;;;;;;;;;;;;;;;;;;5015568;28;20306;-91
2022/09/25 07:44:25;;;;;;;;;;;;;;;;;;5028317;28;19929;-91
2022/09/25 07:46:51;;;;;;;;;;;;;;;;;;5014192;28;20044;-90
2022/09/25 07:49:17;;;;;;;;;;;;;;;;;;5011571;28;19940;-91
2022/09/25 07:51:43;;;;;;;;;;;;;;;;;;5017354;28;19929;-91
2022/09/25 07:54:09;;;;;;;;;;;;;;;;;;5007378;28;19932;-91
2022/09/25 07:56:37;;;;;;;;;;;;;;;;;;5008092;28;20356;-90
2022/09/25 07:59:05;;;;;;;;;;;;;;;;;;5004670;28;19997;-91
2022/09/25 08:01:31;;;;;;;;;;;;;;;;;;5006107;28;19936;-92
2022/09/25 08:03:58;;;;;;;;;;;;;;;;;;5001018;28;19932;-91
2022/09/25 08:06:24;;;;;;;;;;;;;;;;;;5008820;28;19928;-91
2022/09/25 08:08:50;;;;;;;;;;;;;;;;;;5016319;28;19932;-92
2022/09/25 08:11:16;;;;;;;;;;;;;;;;;;5028694;28;19928;-91
2022/09/25 08:13:41;;;;;;;;;;;;;;;;;;5016828;28;19924;-92
2022/09/25 08:16:10;;;;;;;;;;;;;;;;;;5006480;28;19954;-91
2022/09/25 08:18:36;;;;;;;;;;;;;;;;;;5018947;28;19924;-92
2022/09/25 08:21:02;;;;;;;;;;;;;;;;;;5009791;28;20389;-92
2022/09/25 08:23:28;;;;;;;;;;;;;;;;;;5028064;28;20058;-92
2022/09/25 08:25:54;;;;;;;;;;;;;;;;;;5016877;28;20374;-91
2022/09/25 08:28:21;;;;;;;;;;;;;;;;;;5026045;28;19924;-93
2022/09/25 08:30:47;;;;;;;;;;;;;;;;;;5017693;28;20011;-92
2022/09/25 08:33:13;;;;;;;;;;;;;;;;;;5011481;28;20011;-96
2022/09/25 08:35:47;;;;;;;;;;;;;;;;;;5019344;28;20325;-85
2022/09/25 08:38:13;;;;;;;;;;;;;;;;;;4991262;28;19983;-85
2022/09/25 08:40:39;;;;;;;;;;;;;;;;;;4999239;28;19980;-86
2022/09/25 08:43:07;;;;;;;;;;;;;;;;;;5007377;28;19928;-85
2022/09/25 08:51:04;;;;;;;;;;;;;;;;;;5001487;28;19932;-86
2022/09/25 08:53:30;;;;;;;;;;;;;;;;;;5017441;28;20283;-86
2022/09/25 08:56:16;;;;;;;;;;;;;;;;;;5009148;28;19975;-86
2022/09/25 08:58:42;;;;;;;;;;;;;;;;;;5008678;28;21580;-86
2022/09/25 09:01:08;;;;;;;;;;;;;;;;;;5004900;28;19978;-86
2022/09/25 09:03:34;;;;;;;;;;;;;;;;;;5010431;28;19928;-86
2022/09/25 09:06:01;;;;;;;;;;;;;;;;;;4991537;28;19928;-86
2022/09/25 09:08:37;;;;;;;;;;;;;;;;;;5031639;28;19935;-85
2022/09/25 09:11:03;;;;;;;;;;;;;;;;;;5028906;28;19951;-86
2022/09/25 09:13:29;;;;;;;;;;;;;;;;;;5015204;28;19932;-85
2022/09/25 09:15:55;;;;;;;;;;;;;;;;;;5007281;28;20493;-86
2022/09/25 09:18:21;;;;;;;;;;;;;;;;;;5008994;28;21630;-86
2022/09/25 09:20:47;;;;;;;;;;;;;;;;;;5023359;28;19931;-86
2022/09/25 09:23:13;;;;;;;;;;;;;;;;;;5017325;28;20980;-86
2022/09/25 09:25:39;;;;;;;;;;;;;;;;;;4999428;28;19963;-86
2022/09/25 09:28:05;;;;;;;;;;;;;;;;;;5016526;28;19931;-87
2022/09/25 09:30:32;;;;;;;;;;;;;;;;;;5002684;28;19976;-86
2022/09/25 09:32:58;;;;;;;;;;;;;;;;;;5014623;28;21382;-86
2022/09/25 09:35:23;;;;;;;;;;;;;;;;;;5017854;28;20731;-86
2022/09/25 09:37:49;;;;;;;;;;;;;;;;;;4997428;28;20014;-86
2022/09/25 09:40:15;;;;;;;;;;;;;;;;;;5006248;28;19982;-86
2022/09/25 09:42:42;;;;;;;;;;;;;;;;;;4994148;28;20331;-86
2022/09/25 09:45:08;;;;;;;;;;;;;;;;;;5000202;28;20370;-84
2022/09/25 09:47:38;;;;;;;;;;;;;;;;;;4996127;28;19928;-85
2022/09/25 09:50:07;;;;;;;;;;;;;;;;;;5018541;28;19924;-84
2022/09/25 09:52:33;;;;;;;;;;;;;;;;;;4997274;28;19951;-84
2022/09/25 09:54:59;;;;;;;;;;;;;;;;;;4994068;28;19928;-85
2022/09/25 09:57:25;;;;;;;;;;;;;;;;;;5008569;28;19929;-85
2022/09/25 09:59:51;;;;;;;;;;;;;;;;;;5016021;28;19964;-85
2022/09/25 10:02:17;;;;;;;;;;;;;;;;;;5016288;28;19921;-85
2022/09/25 10:04:43;;;;;;;;;;;;;;;;;;4991524;28;20280;-85
2022/09/25 10:07:09;;;;;;;;;;;;;;;;;;5000300;28;20042;-84
2022/09/25 10:09:36;;;;;;;;;;;;;;;;;;4995038;28;20007;-84
2022/09/25 10:12:02;;;;;;;;;;;;;;;;;;4993330;28;19935;-85
2022/09/25 10:14:29;;;;;;;;;;;;;;;;;;5020822;28;20333;-85
2022/09/25 10:16:55;;;;;;;;;;;;;;;;;;4989528;28;19985;-85
2022/09/25 10:19:21;;;;;;;;;;;;;;;;;;5001594;28;20374;-85
2022/09/25 10:21:47;;;;;;;;;;;;;;;;;;5011738;28;20319;-85
2022/09/25 10:24:13;;;;;;;;;;;;;;;;;;5010763;28;19928;-85
2022/09/25 10:26:39;;;;;;;;;;;;;;;;;;5007462;28;20290;-86
2022/09/25 10:29:06;;;;;;;;;;;;;;;;;;5005816;28;19928;-87
2022/09/25 10:31:32;;;;;;;;;;;;;;;;;;5004965;28;19924;-86
2022/09/25 10:33:58;;;;;;;;;;;;;;;;;;5008042;28;22658;-86
2022/09/25 10:36:24;;;;;;;;;;;;;;;;;;5005496;28;19920;-86
2022/09/25 10:38:50;;;;;;;;;;;;;;;;;;5010300;28;19928;-86
2022/09/25 10:41:16;;;;;;;;;;;;;;;;;;4994389;28;20343;-85
2022/09/25 10:43:42;;;;;;;;;;;;;;;;;;5003297;28;20511;-86
2022/09/25 10:46:08;;;;;;;;;;;;;;;;;;5004104;28;21041;-85
2022/09/25 10:51:20;;;;;;;;;;;;;;;;;;5008389;28;20354;-85
2022/09/25 10:53:46;;;;;;;;;;;;;;;;;;5009856;28;19994;-85
2022/09/25 10:56:12;;;;;;;;;;;;;;;;;;5015100;28;19925;-85
2022/09/25 10:58:41;;;;;;;;;;;;;;;;;;4996542;28;19971;-85
2022/09/25 11:01:12;;;;;;;;;;;;;;;;;;5011213;28;20023;-85
2022/09/25 11:03:38;;;;;;;;;;;;;;;;;;5012844;28;19924;-85
2022/09/25 11:06:04;;;;;;;;;;;;;;;;;;5011128;28;19951;-85
2022/09/25 11:08:30;;;;;;;;;;;;;;;;;;4999995;28;20375;-85
2022/09/25 11:10:56;;;;;;;;;;;;;;;;;;4996945;28;19924;-85
2022/09/25 11:13:27;;;;;;;;;;;;;;;;;;5004878;28;20001;-85
2022/09/25 11:15:53;;;;;;;;;;;;;;;;;;4999570;28;19931;-85
2022/09/25 11:18:19;;;;;;;;;;;;;;;;;;4986717;28;19967;-85
2022/09/25 11:20:45;;;;;;;;;;;;;;;;;;4977854;28;19936;-85
2022/09/25 11:23:13;;;;;;;;;;;;;;;;;;5023988;28;19929;-85
2022/09/25 11:25:39;;;;;;;;;;;;;;;;;;4984519;28;19935;-85
2022/09/25 11:28:05;;;;;;;;;;;;;;;;;;4988437;28;19974;-85
2022/09/25 11:30:31;;;;;;;;;;;;;;;;;;4991749;28;19929;-85
2022/09/25 11:32:57;;;;;;;;;;;;;;;;;;4990961;28;20274;-85
2022/09/25 11:35:23;;;;;;;;;;;;;;;;;;5008388;28;19976;-85
2022/09/25 11:37:49;;;;;;;;;;;;;;;;;;4988998;28;19922;-85
2022/09/25 11:43:00;;;;;;;;;;;;;;;;;;4997650;28;19928;-85
2022/09/25 11:45:32;;;;;;;;;;;;;;;;;;4984758;28;19929;-85
2022/09/25 11:48:01;;;;;;;;;;;;;;;;;;4984622;28;20521;-85
2022/09/25 11:54:17;;;;;;;;;;;;;;;;;;4969344;28;20268;-86
2022/09/25 11:57:03;;;;;;;;;;;;;;;;;;4987006;28;19958;-85
2022/09/25 11:59:41;;;;;;;;;;;;;;;;;;5004634;28;19939;-86
2022/09/25 12:02:39;;;;;;;;;;;;;;;;;;5002802;28;20591;-85
2022/09/25 12:05:28;;;;;;;;;;;;;;;;;;4931938;28;19926;-85
2022/09/25 12:08:06;;;;;;;;;;;;;;;;;;;;;
2022/09/25 12:10:38;;;;;;;;;;;;;;;;;;4882758;29;20713;-85
2022/09/25 12:13:47;;;;;;;;;;;;;;;;;;4889426;28;19966;-85
2022/09/25 12:40:39;;;;;;;;;;;;;;;;;;;;;
2022/09/25 12:49:10;;;;;;;;;;;;;;;;;;4916733;28;19929;-85
2022/09/25 12:52:18;;;;;;;;;;;;;;;;;;;;;
2022/09/25 12:55:02;;;;;;;;;;;;;;;;;;5009094;28;20715;-85
2022/09/25 12:57:33;;;;;;;;;;;;;;;;;;4992658;28;19998;-85
2022/09/25 13:03:28;;;;;;;;;;;;;;;;;;;;;
2022/09/25 13:09:17;;;;;;;;;;;;;;;;;;;;;
2022/09/25 13:36:06;;;;;;;;;;;;;;;;;;;;;
2022/09/25 13:57:26;;;;;;;;;;;;;;;;;;5994933;22;19932;-86
2022/09/25 13:59:52;;;;;;;;;;;;;;;;;;5039801;28;19931;-86
2022/09/25 14:02:22;;;;;;;;;;;;;;;;;;5025274;28;20010;-86
2022/09/25 14:04:48;;;;;;;;;;;;;;;;;;5039253;28;19930;-86
2022/09/25 14:07:14;;;;;;;;;;;;;;;;;;5047383;28;19928;-86
2022/09/25 14:09:42;;;;;;;;;;;;;;;;;;5034887;27;19924;-86
2022/09/25 14:12:08;;;;;;;;;;;;;;;;;;5046915;28;19927;-86
2022/09/25 14:14:35;;;;;;;;;;;;;;;;;;5029091;27;20026;-86
2022/09/25 14:17:01;;;;;;;;;;;;;;;;;;5027575;27;19931;-86
2022/09/25 14:19:27;;;;;;;;;;;;;;;;;;5035272;28;21181;-86
2022/09/25 14:21:53;;;;;;;;;;;;;;;;;;5043663;28;19977;-86
2022/09/25 14:24:23;;;;;;;;;;;;;;;;;;5029112;28;19928;-87
2022/09/25 14:26:55;;;;;;;;;;;;;;;;;;5033798;28;19947;-86
2022/09/25 14:29:21;;;;;;;;;;;;;;;;;;5040684;28;19946;-86
2022/09/25 14:31:47;;;;;;;;;;;;;;;;;;5046976;28;19936;-86
2022/09/25 14:34:16;;;;;;;;;;;;;;;;;;5037575;28;19920;-86
2022/09/25 14:36:42;;;;;;;;;;;;;;;;;;5032483;28;19924;-86
2022/09/25 14:39:08;;;;;;;;;;;;;;;;;;5038618;28;20290;-86
2022/09/25 14:41:34;;;;;;;;;;;;;;;;;;5031995;28;20389;-86
2022/09/25 14:44:01;;;;;;;;;;;;;;;;;;5032368;27;19924;-86
2022/09/25 14:46:28;;;;;;;;;;;;;;;;;;5034469;27;19989;-86
2022/09/25 14:48:54;;;;;;;;;;;;;;;;;;5034966;27;20357;-86
2022/09/25 14:51:25;;;;;;;;;;;;;;;;;;5034892;28;21098;-86
2022/09/25 14:53:52;;;;;;;;;;;;;;;;;;5030477;28;19930;-86
2022/09/25 14:56:21;;;;;;;;;;;;;;;;;;5040497;27;20394;-86
2022/09/25 14:58:48;;;;;;;;;;;;;;;;;;5024139;28;19931;-85
2022/09/25 15:01:16;;;;;;;;;;;;;;;;;;5039288;28;19927;-85
2022/09/25 15:03:42;;;;;;;;;;;;;;;;;;5025698;27;19928;-85
2022/09/25 15:06:08;;;;;;;;;;;;;;;;;;5025871;28;19928;-85
2022/09/25 15:08:34;;;;;;;;;;;;;;;;;;5027285;27;20000;-85
2022/09/25 15:11:00;;;;;;;;;;;;;;;;;;5040580;28;19924;-86
2022/09/25 15:13:32;;;;;;;;;;;;;;;;;;5035986;28;19927;-86
2022/09/25 15:18:46;;;;;;;;;;;;;;;;;;5048898;28;19967;-86
2022/09/25 15:21:12;;;;;;;;;;;;;;;;;;5036181;28;19928;-85
2022/09/25 15:23:42;;;;;;;;;;;;;;;;;;5034726;28;19950;-86
2022/09/25 15:26:13;;;;;;;;;;;;;;;;;;5059620;27;19928;-85
2022/09/25 15:28:57;;;;;;;;;;;;;;;;;;5022958;28;19928;-85
2022/09/25 15:31:25;;;;;;;;;;;;;;;;;;4999683;28;20048;-86
2022/09/25 15:33:51;;;;;;;;;;;;;;;;;;4983024;28;19928;-87
2022/09/25 15:36:27;;;;;;;;;;;;;;;;;;4990994;28;20437;-85
2022/09/25 15:38:55;;;;;;;;;;;;;;;;;;4991037;28;19929;-85
2022/09/25 15:41:24;;;;;;;;;;;;;;;;;;4973143;28;19936;-86
2022/09/25 15:43:55;;;;;;;;;;;;;;;;;;4973334;28;20470;-86
2022/09/25 15:46:24;;;;;;;;;;;;;;;;;;4998471;28;19980;-85
2022/09/25 15:48:55;;;;;;;;;;;;;;;;;;4969426;28;19925;-86
2022/09/25 15:51:22;;;;;;;;;;;;;;;;;;4975019;28;19931;-86
2022/09/25 15:53:50;;;;;;;;;;;;;;;;;;4950916;28;19931;-86
2022/09/25 15:56:28;;;;;;;;;;;;;;;;;;4978015;28;20093;-86
2022/09/25 15:59:16;;;;;;;;;;;;;;;;;;4986191;28;20028;-85
2022/09/25 16:04:48;;;;;;;;;;;;;;;;;;5013282;28;19929;-86
2022/09/25 16:07:14;;;;;;;;;;;;;;;;;;4989683;28;20533;-86
2022/09/25 16:09:41;;;;;;;;;;;;;;;;;;4991014;28;20798;-86
2022/09/25 16:12:09;;;;;;;;;;;;;;;;;;5029545;28;19935;-86
2022/09/25 16:14:35;;;;;;;;;;;;;;;;;;5053998;28;19928;-86
2022/09/25 16:17:02;;;;;;;;;;;;;;;;;;5032251;28;19935;-86
2022/09/25 16:19:46;;;;;;;;;;;;;;;;;;5062156;27;20676;-85
2022/09/25 16:22:14;;;;;;;;;;;;;;;;;;5055164;28;19932;-85
2022/09/25 16:24:41;;;;;;;;;;;;;;;;;;5062831;28;20382;-85
2022/09/25 16:27:08;;;;;;;;;;;;;;;;;;5036302;28;19924;-85
2022/09/25 16:29:37;;;;;;;;;;;;;;;;;;5033210;27;20549;-86
2022/09/25 16:32:11;;;;;;;;;;;;;;;;;;5050907;28;19928;-85
2022/09/25 16:34:41;;;;;;;;;;;;;;;;;;5046105;28;19950;-85
2022/09/25 16:37:09;;;;;;;;;;;;;;;;;;5049706;28;19924;-86
2022/09/25 16:39:41;;;;;;;;;;;;;;;;;;5061556;28;19949;-87
2022/09/25 16:45:34;;;;;;;;;;;;;;;;;;4948782;28;20136;-85
2022/09/25 16:48:29;;;;;;;;;;;;;;;;;;4935801;28;19926;-85
2022/09/25 16:51:21;;;;;;;;;;;;;;;;;;4927920;28;19930;-85
2022/09/25 16:57:08;;;;;;;;;;;;;;;;;;4878168;29;19926;-86
2022/09/25 17:03:11;;;;;;;;;;;;;;;;;;;;;
2022/09/25 17:05:48;;;;;;;;;;;;;;;;;;4951419;28;19929;-85
2022/09/25 17:08:14;;;;;;;;;;;;;;;;;;4940774;28;19938;-85
2022/09/25 17:10:43;;;;;;;;;;;;;;;;;;4918770;28;20324;-85
2022/09/25 17:13:15;;;;;;;;;;;;;;;;;;4921794;28;20165;-85
2022/09/25 17:15:43;;;;;;;;;;;;;;;;;;4930510;28;20426;-84
2022/09/25 17:18:13;;;;;;;;;;;;;;;;;;4926336;28;19934;-85
2022/09/25 17:20:55;;;;;;;;;;;;;;;;;;4888806;28;19997;-85
2022/09/25 17:23:32;;;;;;;;;;;;;;;;;;;;;
2022/09/25 17:26:01;;;;;;;;;;;;;;;;;;4884172;28;19934;-86
2022/09/25 17:28:32;;;;;;;;;;;;;;;;;;4893631;28;19927;-85
2022/09/25 17:30:59;;;;;;;;;;;;;;;;;;4944457;28;19928;-86
2022/09/25 17:33:38;;;;;;;;;;;;;;;;;;5012716;28;19928;-86
2022/09/25 17:36:22;;;;;;;;;;;;;;;;;;4979386;28;19929;-85
2022/09/25 17:38:48;;;;;;;;;;;;;;;;;;4955334;28;19956;-85
2022/09/25 17:41:16;;;;;;;;;;;;;;;;;;4933940;28;19941;-85
2022/09/25 17:43:47;;;;;;;;;;;;;;;;;;4919909;28;19930;-85
2022/09/25 17:46:32;;;;;;;;;;;;;;;;;;4941086;28;19926;-85
2022/09/25 17:48:59;;;;;;;;;;;;;;;;;;4900104;28;19937;-85
2022/09/25 17:51:27;;;;;;;;;;;;;;;;;;4917689;28;19936;-86
2022/09/25 17:54:00;;;;;;;;;;;;;;;;;;4934977;28;19937;-85
2022/09/25 17:56:36;;;;;;;;;;;;;;;;;;4938112;28;19926;-85
2022/09/25 17:59:07;;;;;;;;;;;;;;;;;;4957785;28;20363;-85
2022/09/25 18:01:34;;;;;;;;;;;;;;;;;;4942900;28;19937;-85
2022/09/25 18:04:02;;;;;;;;;;;;;;;;;;4933750;28;20019;-85
2022/09/25 18:06:29;;;;;;;;;;;;;;;;;;4946817;28;19932;-85
2022/09/25 18:08:56;;;;;;;;;;;;;;;;;;4974165;28;19930;-85
2022/09/25 18:11:24;;;;;;;;;;;;;;;;;;4985386;28;19929;-84
2022/09/25 18:13:51;;;;;;;;;;;;;;;;;;5029485;28;20271;-84
2022/09/25 18:16:17;;;;;;;;;;;;;;;;;;5036525;28;19928;-84
2022/09/25 18:24:23;;;;;;;;;;;;;;;;;;5036063;28;19928;-84
2022/09/25 18:26:52;;;;;;;;;;;;;;;;;;5014117;28;19928;-85
2022/09/25 18:29:23;;;;;;;;;;;;;;;;;;5033560;28;20064;-85
2022/09/25 18:31:50;;;;;;;;;;;;;;;;;;5030898;28;19929;-84
2022/09/25 18:34:17;;;;;;;;;;;;;;;;;;5033111;28;19924;-83
2022/09/25 18:36:45;;;;;;;;;;;;;;;;;;5031378;28;19924;-84
2022/09/25 18:39:12;;;;;;;;;;;;;;;;;;5011337;28;23486;-84
2022/09/25 18:41:38;;;;;;;;;;;;;;;;;;5018657;28;20023;-84
2022/09/25 18:44:08;;;;;;;;;;;;;;;;;;5011881;28;19931;-84
2022/09/25 18:46:36;;;;;;;;;;;;;;;;;;5010684;28;19929;-84
2022/09/25 18:49:07;;;;;;;;;;;;;;;;;;5031459;28;19928;-84
2022/09/25 18:51:34;;;;;;;;;;;;;;;;;;5029914;28;20012;-84
2022/09/25 18:54:00;;;;;;;;;;;;;;;;;;5003154;28;19929;-84
2022/09/25 18:56:42;;;;;;;;;;;;;;;;;;5027906;28;19962;-83
2022/09/25 18:59:09;;;;;;;;;;;;;;;;;;5025984;28;19930;-84
2022/09/25 19:01:40;;;;;;;;;;;;;;;;;;5017284;28;19939;-84
2022/09/25 19:04:06;;;;;;;;;;;;;;;;;;5036443;28;19999;-84
2022/09/25 19:06:35;;;;;;;;;;;;;;;;;;5050459;28;19924;-84